sensor_id;sensor_type;location;lat;lon;timestamp;P1;durP1;ratioP1;P2;durP2;ratioP2
1753;SDS011;58380;48.312;9.246;2024-02-21T08:22:56;18.27;;;6.45;;
1753;SDS011;58380;48.312;9.246;2024-02-21T08:25:57;21.13;;;6.53;;
1753;SDS011;58380;48.312;9.246;2024-02-21T08:28:57;17.88;;;6.45;;
1753;SDS011;58380;48.312;9.246;2024-02-21T08:31:59;17.35;;;6.47;;
1753;SDS011;58380;48.312;9.246;2024-02-21T08:35:00;16.38;;;6.60;;
1753;SDS011;58380;48.312;9.246;2024-02-21T08:38:00;24.00;;;7.63;;
1753;SDS011;58380;48.312;9.246;2024-02-21T08:41:00;19.40;;;6.90;;
1753;SDS011;58380;48.312;9.246;2024-02-21T08:44:01;10.20;;;4.63;;
1753;SDS011;58380;48.312;9.246;2024-02-21T08:47:01;12.90;;;4.65;;
1753;SDS011;58380;48.312;9.246;2024-02-21T08:50:03;14.02;;;3.95;;
1753;SDS011;58380;48.312;9.246;2024-02-21T08:53:05;11.50;;;3.65;;
1753;SDS011;58380;48.312;9.246;2024-02-21T08:56:07;11.80;;;3.92;;
1753;SDS011;58380;48.312;9.246;2024-02-21T08:59:10;9.15;;;3.25;;
1753;SDS011;58380;48.312;9.246;2024-02-21T09:02:10;9.52;;;3.40;;
1753;SDS011;58380;48.312;9.246;2024-02-21T09:05:11;10.23;;;3.25;;
1753;SDS011;58380;48.312;9.246;2024-02-21T09:08:11;18.42;;;6.40;;
1753;SDS011;58380;48.312;9.246;2024-02-21T09:11:12;9.32;;;3.70;;
1753;SDS011;58380;48.312;9.246;2024-02-21T09:14:12;12.18;;;2.75;;
1753;SDS011;58380;48.312;9.246;2024-02-21T09:17:13;12.57;;;4.30;;
1753;SDS011;58380;48.312;9.246;2024-02-21T09:20:14;14.45;;;3.90;;
1753;SDS011;58380;48.312;9.246;2024-02-21T09:23:16;9.73;;;3.65;;
1753;SDS011;58380;48.312;9.246;2024-02-21T09:26:16;8.98;;;4.25;;
1753;SDS011;58380;48.312;9.246;2024-02-21T09:29:17;10.77;;;4.30;;
1753;SDS011;58380;48.312;9.246;2024-02-21T09:32:18;10.68;;;4.65;;
1753;SDS011;58380;48.312;9.246;2024-02-21T09:35:19;13.50;;;5.30;;
1753;SDS011;58380;48.312;9.246;2024-02-21T09:38:19;12.52;;;4.63;;
1753;SDS011;58380;48.312;9.246;2024-02-21T09:41:26;10.85;;;3.95;;
1753;SDS011;58380;48.312;9.246;2024-02-21T09:44:33;11.77;;;4.35;;
1753;SDS011;58380;48.312;9.246;2024-02-21T09:47:43;10.63;;;4.55;;
1753;SDS011;58380;48.312;9.246;2024-02-21T09:50:59;16.33;;;6.38;;
1753;SDS011;58380;48.312;9.246;2024-02-21T09:54:00;13.05;;;3.83;;
1753;SDS011;58380;48.312;9.246;2024-02-21T09:57:03;14.10;;;3.70;;
1753;SDS011;58380;48.312;9.246;2024-02-21T10:00:05;16.20;;;4.90;;
1753;SDS011;58380;48.312;9.246;2024-02-21T10:03:09;13.50;;;5.30;;
1753;SDS011;58380;48.312;9.246;2024-02-21T10:06:10;10.25;;;3.45;;
1753;SDS011;58380;48.312;9.246;2024-02-21T10:09:26;8.27;;;3.47;;
1753;SDS011;58380;48.312;9.246;2024-02-21T10:12:28;7.78;;;2.58;;
1753;SDS011;58380;48.312;9.246;2024-02-21T10:15:28;8.32;;;2.60;;
1753;SDS011;58380;48.312;9.246;2024-02-21T10:18:29;8.65;;;3.42;;
1753;SDS011;58380;48.312;9.246;2024-02-21T10:21:29;7.45;;;2.60;;
1753;SDS011;58380;48.312;9.246;2024-02-21T10:24:30;7.60;;;2.95;;
1753;SDS011;58380;48.312;9.246;2024-02-21T10:27:36;5.75;;;2.70;;
1753;SDS011;58380;48.312;9.246;2024-02-21T10:30:37;6.70;;;2.50;;
1753;SDS011;58380;48.312;9.246;2024-02-21T10:33:37;6.25;;;2.55;;
1753;SDS011;58380;48.312;9.246;2024-02-21T10:36:38;8.63;;;2.47;;
1753;SDS011;58380;48.312;9.246;2024-02-21T10:39:41;8.73;;;3.10;;
1753;SDS011;58380;48.312;9.246;2024-02-21T10:42:43;5.95;;;2.20;;
1753;SDS011;58380;48.312;9.246;2024-02-21T10:45:46;7.07;;;2.20;;
1753;SDS011;58380;48.312;9.246;2024-02-21T10:48:59;5.68;;;2.65;;
1753;SDS011;58380;48.312;9.246;2024-02-21T10:55:56;5.28;;;2.17;;
1753;SDS011;58380;48.312;9.246;2024-02-21T10:59:02;7.35;;;2.67;;
1753;SDS011;58380;48.312;9.246;2024-02-21T11:02:04;8.00;;;2.13;;
1753;SDS011;58380;48.312;9.246;2024-02-21T11:05:05;3.30;;;1.67;;
1753;SDS011;58380;48.312;9.246;2024-02-21T11:08:07;5.00;;;1.70;;
1753;SDS011;58380;48.312;9.246;2024-02-21T11:11:07;5.95;;;1.55;;
1753;SDS011;58380;48.312;9.246;2024-02-21T11:14:09;4.68;;;1.80;;
1753;SDS011;58380;48.312;9.246;2024-02-21T11:17:20;3.70;;;1.58;;
1753;SDS011;58380;48.312;9.246;2024-02-21T11:20:34;4.45;;;1.75;;
1753;SDS011;58380;48.312;9.246;2024-02-21T11:23:36;3.55;;;1.50;;
1753;SDS011;58380;48.312;9.246;2024-02-21T11:26:37;6.28;;;1.60;;
1753;SDS011;58380;48.312;9.246;2024-02-21T11:29:44;6.13;;;1.45;;
1753;SDS011;58380;48.312;9.246;2024-02-21T11:32:58;5.20;;;1.60;;
1753;SDS011;58380;48.312;9.246;2024-02-21T11:36:03;3.85;;;1.30;;
1753;SDS011;58380;48.312;9.246;2024-02-21T11:39:04;3.88;;;1.60;;
1753;SDS011;58380;48.312;9.246;2024-02-21T11:42:09;3.08;;;1.60;;
1753;SDS011;58380;48.312;9.246;2024-02-21T11:45:10;3.20;;;1.60;;
1753;SDS011;58380;48.312;9.246;2024-02-21T11:48:11;5.88;;;1.40;;
1753;SDS011;58380;48.312;9.246;2024-02-21T11:51:11;5.85;;;1.38;;
1753;SDS011;58380;48.312;9.246;2024-02-21T11:54:24;2.72;;;1.33;;
1753;SDS011;58380;48.312;9.246;2024-02-21T11:57:25;4.20;;;1.25;;
1753;SDS011;58380;48.312;9.246;2024-02-21T12:00:25;5.00;;;1.60;;
1753;SDS011;58380;48.312;9.246;2024-02-21T12:03:26;4.30;;;1.13;;
1753;SDS011;58380;48.312;9.246;2024-02-21T12:06:26;3.58;;;1.10;;
1753;SDS011;58380;48.312;9.246;2024-02-21T12:09:27;3.90;;;1.17;;
1753;SDS011;58380;48.312;9.246;2024-02-21T12:12:27;2.17;;;1.13;;
1753;SDS011;58380;48.312;9.246;2024-02-21T12:15:28;2.83;;;1.20;;
1753;SDS011;58380;48.312;9.246;2024-02-21T12:18:31;4.82;;;1.23;;
1753;SDS011;58380;48.312;9.246;2024-02-21T12:21:32;2.80;;;1.45;;
1753;SDS011;58380;48.312;9.246;2024-02-21T12:24:36;2.50;;;1.02;;
1753;SDS011;58380;48.312;9.246;2024-02-21T12:27:38;2.72;;;1.33;;
1753;SDS011;58380;48.312;9.246;2024-02-21T12:30:38;5.60;;;1.98;;
1753;SDS011;58380;48.312;9.246;2024-02-21T12:33:40;4.72;;;1.60;;
1753;SDS011;58380;48.312;9.246;2024-02-21T12:36:41;7.40;;;1.80;;
1753;SDS011;58380;48.312;9.246;2024-02-21T12:39:43;1.88;;;0.90;;
1753;SDS011;58380;48.312;9.246;2024-02-21T12:42:44;4.78;;;1.92;;
1753;SDS011;58380;48.312;9.246;2024-02-21T12:45:45;8.07;;;2.70;;
1753;SDS011;58380;48.312;9.246;2024-02-21T12:48:45;3.55;;;1.50;;
1753;SDS011;58380;48.312;9.246;2024-02-21T12:51:46;13.43;;;5.22;;
1753;SDS011;58380;48.312;9.246;2024-02-21T12:54:46;4.88;;;2.08;;
1753;SDS011;58380;48.312;9.246;2024-02-21T12:57:47;5.15;;;2.00;;
1753;SDS011;58380;48.312;9.246;2024-02-21T13:00:48;2.75;;;1.33;;
1753;SDS011;58380;48.312;9.246;2024-02-21T13:03:49;2.10;;;1.17;;
1753;SDS011;58380;48.312;9.246;2024-02-21T13:06:49;2.38;;;1.00;;
1753;SDS011;58380;48.312;9.246;2024-02-21T13:09:49;2.28;;;1.00;;
1753;SDS011;58380;48.312;9.246;2024-02-21T13:12:50;2.20;;;1.00;;
1753;SDS011;58380;48.312;9.246;2024-02-21T13:15:50;3.97;;;1.33;;
1753;SDS011;58380;48.312;9.246;2024-02-21T13:18:51;3.95;;;1.45;;
1753;SDS011;58380;48.312;9.246;2024-02-21T13:21:51;7.93;;;1.95;;
1753;SDS011;58380;48.312;9.246;2024-02-21T13:24:51;4.20;;;1.83;;
1753;SDS011;58380;48.312;9.246;2024-02-21T13:27:52;5.75;;;2.20;;
1753;SDS011;58380;48.312;9.246;2024-02-21T13:30:52;8.07;;;3.30;;
1753;SDS011;58380;48.312;9.246;2024-02-21T13:33:53;4.38;;;1.55;;
1753;SDS011;58380;48.312;9.246;2024-02-21T13:36:53;5.05;;;1.60;;
1753;SDS011;58380;48.312;9.246;2024-02-21T13:39:53;4.15;;;1.80;;
1753;SDS011;58380;48.312;9.246;2024-02-21T13:42:54;5.65;;;1.80;;
1753;SDS011;58380;48.312;9.246;2024-02-21T13:45:59;3.75;;;1.20;;
1753;SDS011;58380;48.312;9.246;2024-02-21T13:49:03;4.28;;;1.50;;
1753;SDS011;58380;48.312;9.246;2024-02-21T13:52:08;5.30;;;2.03;;
1753;SDS011;58380;48.312;9.246;2024-02-21T13:55:09;6.60;;;2.42;;
1753;SDS011;58380;48.312;9.246;2024-02-21T13:58:09;4.80;;;2.05;;
1753;SDS011;58380;48.312;9.246;2024-02-21T14:01:10;2.42;;;1.27;;
1753;SDS011;58380;48.312;9.246;2024-02-21T14:04:10;5.10;;;1.80;;
1753;SDS011;58380;48.312;9.246;2024-02-21T14:07:10;4.65;;;2.03;;
1753;SDS011;58380;48.312;9.246;2024-02-21T14:10:11;5.55;;;2.40;;
1753;SDS011;58380;48.312;9.246;2024-02-21T14:13:11;5.20;;;1.88;;
1753;SDS011;58380;48.312;9.246;2024-02-21T14:16:11;6.00;;;1.83;;
1753;SDS011;58380;48.312;9.246;2024-02-21T14:19:13;6.88;;;1.90;;
1753;SDS011;58380;48.312;9.246;2024-02-21T14:22:14;4.32;;;1.63;;
1753;SDS011;58380;48.312;9.246;2024-02-21T14:25:14;4.75;;;1.80;;
1753;SDS011;58380;48.312;9.246;2024-02-21T14:28:16;5.50;;;2.00;;
1753;SDS011;58380;48.312;9.246;2024-02-21T14:31:17;4.60;;;1.98;;
1753;SDS011;58380;48.312;9.246;2024-02-21T14:34:18;3.85;;;1.75;;
1753;SDS011;58380;48.312;9.246;2024-02-21T14:37:18;5.20;;;1.90;;
1753;SDS011;58380;48.312;9.246;2024-02-21T14:40:19;10.55;;;2.25;;
1753;SDS011;58380;48.312;9.246;2024-02-21T14:43:20;6.45;;;3.50;;
1753;SDS011;58380;48.312;9.246;2024-02-21T14:46:21;4.55;;;2.78;;
1753;SDS011;58380;48.312;9.246;2024-02-21T14:49:21;3.75;;;1.80;;
1753;SDS011;58380;48.312;9.246;2024-02-21T14:52:22;4.85;;;2.17;;
1753;SDS011;58380;48.312;9.246;2024-02-21T14:55:24;4.82;;;2.10;;
1753;SDS011;58380;48.312;9.246;2024-02-21T14:58:25;4.25;;;1.90;;
1753;SDS011;58380;48.312;9.246;2024-02-21T15:01:25;4.93;;;1.80;;
1753;SDS011;58380;48.312;9.246;2024-02-21T15:04:26;4.30;;;1.88;;
1753;SDS011;58380;48.312;9.246;2024-02-21T15:07:26;7.40;;;2.30;;
1753;SDS011;58380;48.312;9.246;2024-02-21T15:10:27;5.60;;;2.22;;
1753;SDS011;58380;48.312;9.246;2024-02-21T15:13:27;6.15;;;2.90;;
1753;SDS011;58380;48.312;9.246;2024-02-21T15:16:28;6.65;;;2.88;;
1753;SDS011;58380;48.312;9.246;2024-02-21T15:19:28;5.70;;;3.05;;
1753;SDS011;58380;48.312;9.246;2024-02-21T15:22:29;5.47;;;2.33;;
1753;SDS011;58380;48.312;9.246;2024-02-21T15:25:29;4.68;;;2.38;;
1753;SDS011;58380;48.312;9.246;2024-02-21T15:28:30;6.50;;;2.90;;
1753;SDS011;58380;48.312;9.246;2024-02-21T15:31:31;5.38;;;3.13;;
1753;SDS011;58380;48.312;9.246;2024-02-21T15:34:31;6.60;;;3.00;;
1753;SDS011;58380;48.312;9.246;2024-02-21T15:37:32;6.15;;;2.58;;
1753;SDS011;58380;48.312;9.246;2024-02-21T15:40:33;5.13;;;2.10;;
1753;SDS011;58380;48.312;9.246;2024-02-21T15:43:35;6.47;;;3.08;;
1753;SDS011;58380;48.312;9.246;2024-02-21T15:46:38;4.45;;;2.08;;
1753;SDS011;58380;48.312;9.246;2024-02-21T15:49:38;5.57;;;2.40;;
1753;SDS011;58380;48.312;9.246;2024-02-21T15:52:38;4.68;;;1.98;;
1753;SDS011;58380;48.312;9.246;2024-02-21T15:55:39;4.15;;;2.10;;
1753;SDS011;58380;48.312;9.246;2024-02-21T15:58:39;4.07;;;1.85;;
1753;SDS011;58380;48.312;9.246;2024-02-21T16:01:41;6.05;;;2.30;;
1753;SDS011;58380;48.312;9.246;2024-02-21T16:04:42;4.80;;;2.38;;
1753;SDS011;58380;48.312;9.246;2024-02-21T16:07:43;6.15;;;3.03;;
1753;SDS011;58380;48.312;9.246;2024-02-21T16:10:43;8.40;;;3.45;;
1753;SDS011;58380;48.312;9.246;2024-02-21T16:13:44;5.60;;;2.42;;
1753;SDS011;58380;48.312;9.246;2024-02-21T16:16:46;23.88;;;10.02;;
1753;SDS011;58380;48.312;9.246;2024-02-21T16:19:48;9.65;;;2.65;;
1753;SDS011;58380;48.312;9.246;2024-02-21T16:22:49;7.45;;;2.88;;
1753;SDS011;58380;48.312;9.246;2024-02-21T16:25:49;7.20;;;2.90;;
1753;SDS011;58380;48.312;9.246;2024-02-21T16:28:49;6.43;;;3.03;;
1753;SDS011;58380;48.312;9.246;2024-02-21T16:31:50;6.10;;;2.60;;
1753;SDS011;58380;48.312;9.246;2024-02-21T16:34:50;3.97;;;2.00;;
1753;SDS011;58380;48.312;9.246;2024-02-21T16:37:51;5.85;;;2.53;;
1753;SDS011;58380;48.312;9.246;2024-02-21T16:40:52;7.95;;;2.90;;
1753;SDS011;58380;48.312;9.246;2024-02-21T16:43:52;3.88;;;1.88;;
1753;SDS011;58380;48.312;9.246;2024-02-21T16:46:52;8.70;;;3.50;;
1753;SDS011;58380;48.312;9.246;2024-02-21T16:49:53;10.25;;;3.47;;
1753;SDS011;58380;48.312;9.246;2024-02-21T16:52:54;27.88;;;13.10;;
1753;SDS011;58380;48.312;9.246;2024-02-21T16:55:54;19.13;;;8.13;;
1753;SDS011;58380;48.312;9.246;2024-02-21T16:58:55;20.40;;;8.40;;
1753;SDS011;58380;48.312;9.246;2024-02-21T17:01:55;16.10;;;6.72;;
1753;SDS011;58380;48.312;9.246;2024-02-21T17:04:55;16.85;;;8.20;;
1753;SDS011;58380;48.312;9.246;2024-02-21T17:07:56;12.02;;;6.00;;
1753;SDS011;58380;48.312;9.246;2024-02-21T17:10:56;8.93;;;5.20;;
1753;SDS011;58380;48.312;9.246;2024-02-21T17:13:58;6.15;;;3.00;;
1753;SDS011;58380;48.312;9.246;2024-02-21T17:16:58;9.73;;;3.97;;
1753;SDS011;58380;48.312;9.246;2024-02-21T17:19:59;9.55;;;4.05;;
1753;SDS011;58380;48.312;9.246;2024-02-21T17:22:59;9.38;;;4.50;;
1753;SDS011;58380;48.312;9.246;2024-02-21T17:26:00;8.65;;;4.78;;
1753;SDS011;58380;48.312;9.246;2024-02-21T17:29:00;9.75;;;4.70;;
1753;SDS011;58380;48.312;9.246;2024-02-21T17:32:03;10.90;;;5.25;;
1753;SDS011;58380;48.312;9.246;2024-02-21T17:35:04;6.53;;;3.50;;
1753;SDS011;58380;48.312;9.246;2024-02-21T17:38:05;6.50;;;3.20;;
1753;SDS011;58380;48.312;9.246;2024-02-21T17:41:06;3.30;;;2.42;;
1753;SDS011;58380;48.312;9.246;2024-02-21T17:44:06;4.38;;;2.40;;
1753;SDS011;58380;48.312;9.246;2024-02-21T17:47:07;7.63;;;4.50;;
1753;SDS011;58380;48.312;9.246;2024-02-21T17:50:08;19.38;;;8.50;;
1753;SDS011;58380;48.312;9.246;2024-02-21T17:53:09;7.63;;;4.28;;
1753;SDS011;58380;48.312;9.246;2024-02-21T17:56:09;6.75;;;3.50;;
1753;SDS011;58380;48.312;9.246;2024-02-21T17:59:10;8.75;;;3.30;;
1753;SDS011;58380;48.312;9.246;2024-02-21T18:02:12;7.65;;;3.97;;
1753;SDS011;58380;48.312;9.246;2024-02-21T18:05:16;7.63;;;4.05;;
1753;SDS011;58380;48.312;9.246;2024-02-21T18:08:17;6.57;;;3.53;;
1753;SDS011;58380;48.312;9.246;2024-02-21T18:11:17;9.68;;;4.00;;
1753;SDS011;58380;48.312;9.246;2024-02-21T18:14:17;8.23;;;4.75;;
1753;SDS011;58380;48.312;9.246;2024-02-21T18:17:18;6.60;;;3.58;;
1753;SDS011;58380;48.312;9.246;2024-02-21T18:20:18;5.70;;;3.42;;
1753;SDS011;58380;48.312;9.246;2024-02-21T18:23:19;6.65;;;3.20;;
1753;SDS011;58380;48.312;9.246;2024-02-21T18:26:19;9.32;;;2.90;;
1753;SDS011;58380;48.312;9.246;2024-02-21T18:29:20;5.15;;;2.53;;
1753;SDS011;58380;48.312;9.246;2024-02-21T18:32:20;6.32;;;3.80;;
1753;SDS011;58380;48.312;9.246;2024-02-21T18:35:21;6.38;;;3.72;;
1753;SDS011;58380;48.312;9.246;2024-02-21T18:38:21;6.65;;;3.60;;
1753;SDS011;58380;48.312;9.246;2024-02-21T18:41:22;9.55;;;4.30;;
1753;SDS011;58380;48.312;9.246;2024-02-21T18:44:23;15.05;;;6.40;;
1753;SDS011;58380;48.312;9.246;2024-02-21T18:47:23;13.60;;;5.28;;
1753;SDS011;58380;48.312;9.246;2024-02-21T18:50:23;16.85;;;6.40;;
1753;SDS011;58380;48.312;9.246;2024-02-21T18:53:24;17.98;;;6.70;;
1753;SDS011;58380;48.312;9.246;2024-02-21T18:56:24;11.43;;;6.70;;
1753;SDS011;58380;48.312;9.246;2024-02-21T18:59:28;19.25;;;11.02;;
1753;SDS011;58380;48.312;9.246;2024-02-21T19:02:28;12.75;;;6.97;;
1753;SDS011;58380;48.312;9.246;2024-02-21T19:05:29;17.52;;;9.70;;
1753;SDS011;58380;48.312;9.246;2024-02-21T19:08:29;8.73;;;5.00;;
1753;SDS011;58380;48.312;9.246;2024-02-21T19:11:30;6.85;;;4.35;;
1753;SDS011;58380;48.312;9.246;2024-02-21T19:14:30;10.23;;;6.03;;
1753;SDS011;58380;48.312;9.246;2024-02-21T19:17:31;8.38;;;4.75;;
1753;SDS011;58380;48.312;9.246;2024-02-21T19:20:31;8.73;;;4.88;;
1753;SDS011;58380;48.312;9.246;2024-02-21T19:23:32;6.97;;;3.85;;
1753;SDS011;58380;48.312;9.246;2024-02-21T19:26:32;7.15;;;3.40;;
1753;SDS011;58380;48.312;9.246;2024-02-21T19:29:32;4.88;;;3.05;;
1753;SDS011;58380;48.312;9.246;2024-02-21T19:32:33;7.65;;;3.85;;
1753;SDS011;58380;48.312;9.246;2024-02-21T19:35:33;5.95;;;3.30;;
1753;SDS011;58380;48.312;9.246;2024-02-21T19:38:34;7.78;;;3.47;;
1753;SDS011;58380;48.312;9.246;2024-02-21T19:41:35;5.93;;;3.40;;
1753;SDS011;58380;48.312;9.246;2024-02-21T19:44:35;7.18;;;4.20;;
1753;SDS011;58380;48.312;9.246;2024-02-21T19:47:36;11.68;;;4.50;;
1753;SDS011;58380;48.312;9.246;2024-02-21T19:50:36;7.88;;;4.25;;
1753;SDS011;58380;48.312;9.246;2024-02-21T19:53:38;8.82;;;4.60;;
1753;SDS011;58380;48.312;9.246;2024-02-21T19:56:39;5.25;;;3.40;;
1753;SDS011;58380;48.312;9.246;2024-02-21T19:59:39;6.25;;;3.38;;
1753;SDS011;58380;48.312;9.246;2024-02-21T20:02:40;6.40;;;3.58;;
1753;SDS011;58380;48.312;9.246;2024-02-21T20:05:42;7.15;;;3.90;;
1753;SDS011;58380;48.312;9.246;2024-02-21T20:08:43;8.10;;;4.13;;
1753;SDS011;58380;48.312;9.246;2024-02-21T20:11:44;8.00;;;4.03;;
1753;SDS011;58380;48.312;9.246;2024-02-21T20:14:44;7.05;;;4.10;;
1753;SDS011;58380;48.312;9.246;2024-02-21T20:17:44;11.63;;;6.00;;
1753;SDS011;58380;48.312;9.246;2024-02-21T20:20:46;15.43;;;9.13;;
1753;SDS011;58380;48.312;9.246;2024-02-21T20:23:46;13.90;;;7.63;;
1753;SDS011;58380;48.312;9.246;2024-02-21T20:26:47;10.73;;;6.40;;
1753;SDS011;58380;48.312;9.246;2024-02-21T20:29:47;8.23;;;4.20;;
1753;SDS011;58380;48.312;9.246;2024-02-21T20:32:48;5.68;;;2.83;;
1753;SDS011;58380;48.312;9.246;2024-02-21T20:35:52;4.43;;;2.28;;
1753;SDS011;58380;48.312;9.246;2024-02-21T20:38:52;5.03;;;2.30;;
1753;SDS011;58380;48.312;9.246;2024-02-21T20:41:52;6.53;;;2.20;;
1753;SDS011;58380;48.312;9.246;2024-02-21T20:44:53;5.78;;;2.15;;
1753;SDS011;58380;48.312;9.246;2024-02-21T20:47:54;4.53;;;2.35;;
1753;SDS011;58380;48.312;9.246;2024-02-21T20:50:54;4.57;;;2.20;;
1753;SDS011;58380;48.312;9.246;2024-02-21T20:53:54;5.15;;;2.45;;
1753;SDS011;58380;48.312;9.246;2024-02-21T20:56:55;5.50;;;2.53;;
1753;SDS011;58380;48.312;9.246;2024-02-21T20:59:55;4.28;;;2.47;;
1753;SDS011;58380;48.312;9.246;2024-02-21T21:02:57;6.32;;;2.83;;
1753;SDS011;58380;48.312;9.246;2024-02-21T21:05:57;6.38;;;3.10;;
1753;SDS011;58380;48.312;9.246;2024-02-21T21:08:57;5.07;;;2.90;;
1753;SDS011;58380;48.312;9.246;2024-02-21T21:11:58;6.43;;;2.97;;
1753;SDS011;58380;48.312;9.246;2024-02-21T21:14:58;6.88;;;3.10;;
1753;SDS011;58380;48.312;9.246;2024-02-21T21:17:59;7.93;;;4.38;;
1753;SDS011;58380;48.312;9.246;2024-02-21T21:20:59;14.75;;;7.00;;
1753;SDS011;58380;48.312;9.246;2024-02-21T21:24:00;22.33;;;9.68;;
1753;SDS011;58380;48.312;9.246;2024-02-21T21:27:01;26.30;;;12.18;;
1753;SDS011;58380;48.312;9.246;2024-02-21T21:30:02;11.18;;;5.60;;
1753;SDS011;58380;48.312;9.246;2024-02-21T21:33:03;6.65;;;3.13;;
1753;SDS011;58380;48.312;9.246;2024-02-21T21:36:04;5.07;;;2.80;;
1753;SDS011;58380;48.312;9.246;2024-02-21T21:39:05;4.82;;;2.80;;
1753;SDS011;58380;48.312;9.246;2024-02-21T21:42:06;5.82;;;3.00;;
1753;SDS011;58380;48.312;9.246;2024-02-21T21:45:08;6.60;;;3.50;;
1753;SDS011;58380;48.312;9.246;2024-02-21T21:48:09;5.68;;;2.90;;
1753;SDS011;58380;48.312;9.246;2024-02-21T21:51:10;10.25;;;5.10;;
1753;SDS011;58380;48.312;9.246;2024-02-21T21:54:11;11.80;;;5.50;;
1753;SDS011;58380;48.312;9.246;2024-02-21T21:57:11;7.70;;;3.95;;
1753;SDS011;58380;48.312;9.246;2024-02-21T22:00:12;10.15;;;5.13;;
1753;SDS011;58380;48.312;9.246;2024-02-21T22:03:12;10.15;;;4.32;;
1753;SDS011;58380;48.312;9.246;2024-02-21T22:06:14;26.40;;;10.55;;
1753;SDS011;58380;48.312;9.246;2024-02-21T22:09:14;13.50;;;4.90;;
1753;SDS011;58380;48.312;9.246;2024-02-21T22:12:15;21.23;;;8.45;;
1753;SDS011;58380;48.312;9.246;2024-02-21T22:15:15;11.05;;;6.30;;
1753;SDS011;58380;48.312;9.246;2024-02-21T22:18:15;7.13;;;3.38;;
1753;SDS011;58380;48.312;9.246;2024-02-21T22:21:16;9.05;;;3.97;;
1753;SDS011;58380;48.312;9.246;2024-02-21T22:24:17;10.13;;;6.47;;
1753;SDS011;58380;48.312;9.246;2024-02-21T22:27:18;12.98;;;8.07;;
1753;SDS011;58380;48.312;9.246;2024-02-21T22:30:19;12.50;;;6.97;;
1753;SDS011;58380;48.312;9.246;2024-02-21T22:33:19;16.00;;;8.63;;
